sensor_id;sensor_type;location;lat;lon;timestamp;P1;durP1;ratioP1;P2;durP2;ratioP2
83145;SDS011;73037;51.110;4.706;2024-02-26T00:02:00;2.08;;;1.27;;
83145;SDS011;73037;51.110;4.706;2024-02-26T00:04:25;2.53;;;1.10;;
83145;SDS011;73037;51.110;4.706;2024-02-26T00:06:51;1.52;;;0.98;;
83145;SDS011;73037;51.110;4.706;2024-02-26T00:09:19;3.72;;;1.95;;
83145;SDS011;73037;51.110;4.706;2024-02-26T00:11:44;2.47;;;1.13;;
83145;SDS011;73037;51.110;4.706;2024-02-26T00:14:10;4.07;;;1.75;;
83145;SDS011;73037;51.110;4.706;2024-02-26T00:16:36;2.20;;;1.30;;
83145;SDS011;73037;51.110;4.706;2024-02-26T00:19:04;1.65;;;1.05;;
83145;SDS011;73037;51.110;4.706;2024-02-26T00:21:30;2.08;;;1.05;;
83145;SDS011;73037;51.110;4.706;2024-02-26T00:23:55;1.55;;;0.93;;
83145;SDS011;73037;51.110;4.706;2024-02-26T00:26:21;3.97;;;1.48;;
83145;SDS011;73037;51.110;4.706;2024-02-26T00:28:47;2.80;;;1.33;;
83145;SDS011;73037;51.110;4.706;2024-02-26T00:31:12;4.05;;;2.17;;
83145;SDS011;73037;51.110;4.706;2024-02-26T00:33:38;2.42;;;1.55;;
83145;SDS011;73037;51.110;4.706;2024-02-26T00:36:04;2.40;;;1.15;;
83145;SDS011;73037;51.110;4.706;2024-02-26T00:38:30;1.55;;;1.20;;
83145;SDS011;73037;51.110;4.706;2024-02-26T00:40:55;1.63;;;0.98;;
83145;SDS011;73037;51.110;4.706;2024-02-26T00:43:21;1.15;;;0.77;;
83145;SDS011;73037;51.110;4.706;2024-02-26T00:45:47;1.83;;;1.05;;
83145;SDS011;73037;51.110;4.706;2024-02-26T00:48:12;4.57;;;1.38;;
83145;SDS011;73037;51.110;4.706;2024-02-26T00:50:39;4.85;;;1.17;;
83145;SDS011;73037;51.110;4.706;2024-02-26T00:53:05;2.42;;;1.02;;
83145;SDS011;73037;51.110;4.706;2024-02-26T00:55:30;1.95;;;1.00;;
83145;SDS011;73037;51.110;4.706;2024-02-26T00:57:56;1.92;;;1.20;;
83145;SDS011;73037;51.110;4.706;2024-02-26T01:00:22;5.45;;;2.10;;
83145;SDS011;73037;51.110;4.706;2024-02-26T01:02:47;3.17;;;1.23;;
83145;SDS011;73037;51.110;4.706;2024-02-26T01:05:13;4.57;;;1.88;;
83145;SDS011;73037;51.110;4.706;2024-02-26T01:07:39;2.55;;;1.02;;
83145;SDS011;73037;51.110;4.706;2024-02-26T01:10:06;2.80;;;1.17;;
83145;SDS011;73037;51.110;4.706;2024-02-26T01:12:32;2.30;;;1.13;;
83145;SDS011;73037;51.110;4.706;2024-02-26T01:14:58;1.42;;;0.93;;
83145;SDS011;73037;51.110;4.706;2024-02-26T01:17:24;2.13;;;1.20;;
83145;SDS011;73037;51.110;4.706;2024-02-26T01:19:50;1.45;;;0.95;;
83145;SDS011;73037;51.110;4.706;2024-02-26T01:22:16;3.95;;;1.60;;
83145;SDS011;73037;51.110;4.706;2024-02-26T01:24:43;5.65;;;1.80;;
83145;SDS011;73037;51.110;4.706;2024-02-26T01:27:08;6.53;;;2.38;;
83145;SDS011;73037;51.110;4.706;2024-02-26T01:29:34;2.72;;;1.55;;
83145;SDS011;73037;51.110;4.706;2024-02-26T01:32:00;10.85;;;2.17;;
83145;SDS011;73037;51.110;4.706;2024-02-26T01:34:26;6.13;;;2.33;;
83145;SDS011;73037;51.110;4.706;2024-02-26T01:36:51;4.38;;;1.35;;
83145;SDS011;73037;51.110;4.706;2024-02-26T01:39:17;7.25;;;1.42;;
83145;SDS011;73037;51.110;4.706;2024-02-26T01:41:43;6.80;;;2.17;;
83145;SDS011;73037;51.110;4.706;2024-02-26T01:44:09;5.32;;;1.63;;
83145;SDS011;73037;51.110;4.706;2024-02-26T01:46:37;4.63;;;1.75;;
83145;SDS011;73037;51.110;4.706;2024-02-26T01:49:03;3.90;;;1.55;;
83145;SDS011;73037;51.110;4.706;2024-02-26T01:51:29;12.07;;;3.17;;
83145;SDS011;73037;51.110;4.706;2024-02-26T01:53:57;6.43;;;2.60;;
83145;SDS011;73037;51.110;4.706;2024-02-26T01:56:25;3.88;;;1.70;;
83145;SDS011;73037;51.110;4.706;2024-02-26T01:58:55;9.32;;;2.95;;
83145;SDS011;73037;51.110;4.706;2024-02-26T02:01:22;12.85;;;3.10;;
83145;SDS011;73037;51.110;4.706;2024-02-26T02:03:50;7.22;;;2.05;;
83145;SDS011;73037;51.110;4.706;2024-02-26T02:06:16;24.63;;;4.82;;
83145;SDS011;73037;51.110;4.706;2024-02-26T02:08:42;8.88;;;2.90;;
83145;SDS011;73037;51.110;4.706;2024-02-26T02:11:08;11.45;;;3.42;;
83145;SDS011;73037;51.110;4.706;2024-02-26T02:13:36;13.18;;;3.70;;
83145;SDS011;73037;51.110;4.706;2024-02-26T02:16:02;10.65;;;3.47;;
83145;SDS011;73037;51.110;4.706;2024-02-26T02:18:29;5.47;;;2.15;;
83145;SDS011;73037;51.110;4.706;2024-02-26T02:20:55;11.85;;;4.15;;
83145;SDS011;73037;51.110;4.706;2024-02-26T02:23:21;9.63;;;3.28;;
83145;SDS011;73037;51.110;4.706;2024-02-26T02:25:47;12.13;;;3.08;;
83145;SDS011;73037;51.110;4.706;2024-02-26T02:28:13;13.60;;;3.78;;
83145;SDS011;73037;51.110;4.706;2024-02-26T02:30:38;16.45;;;4.53;;
83145;SDS011;73037;51.110;4.706;2024-02-26T02:33:05;2.28;;;1.40;;
83145;SDS011;73037;51.110;4.706;2024-02-26T02:35:31;9.35;;;2.53;;
83145;SDS011;73037;51.110;4.706;2024-02-26T02:37:57;11.88;;;3.20;;
83145;SDS011;73037;51.110;4.706;2024-02-26T02:40:23;12.02;;;3.55;;
83145;SDS011;73037;51.110;4.706;2024-02-26T02:42:48;9.00;;;2.53;;
83145;SDS011;73037;51.110;4.706;2024-02-26T02:45:14;7.72;;;2.60;;
83145;SDS011;73037;51.110;4.706;2024-02-26T02:47:40;5.80;;;2.42;;
83145;SDS011;73037;51.110;4.706;2024-02-26T02:50:05;12.15;;;3.75;;
83145;SDS011;73037;51.110;4.706;2024-02-26T02:52:31;8.80;;;2.45;;
83145;SDS011;73037;51.110;4.706;2024-02-26T02:54:57;14.13;;;3.67;;
83145;SDS011;73037;51.110;4.706;2024-02-26T02:57:23;14.05;;;3.17;;
83145;SDS011;73037;51.110;4.706;2024-02-26T02:59:49;10.40;;;3.40;;
83145;SDS011;73037;51.110;4.706;2024-02-26T03:02:15;29.67;;;6.40;;
83145;SDS011;73037;51.110;4.706;2024-02-26T03:04:40;26.92;;;6.10;;
83145;SDS011;73037;51.110;4.706;2024-02-26T03:07:06;14.80;;;3.58;;
83145;SDS011;73037;51.110;4.706;2024-02-26T03:09:31;8.73;;;2.35;;
83145;SDS011;73037;51.110;4.706;2024-02-26T03:11:57;14.18;;;3.33;;
83145;SDS011;73037;51.110;4.706;2024-02-26T03:14:23;22.15;;;5.05;;
83145;SDS011;73037;51.110;4.706;2024-02-26T03:16:50;23.67;;;5.93;;
83145;SDS011;73037;51.110;4.706;2024-02-26T03:19:19;12.15;;;3.33;;
83145;SDS011;73037;51.110;4.706;2024-02-26T03:21:45;34.40;;;7.50;;
83145;SDS011;73037;51.110;4.706;2024-02-26T03:24:11;17.67;;;4.13;;
83145;SDS011;73037;51.110;4.706;2024-02-26T03:26:37;24.88;;;6.00;;
83145;SDS011;73037;51.110;4.706;2024-02-26T03:29:03;22.67;;;5.35;;
83145;SDS011;73037;51.110;4.706;2024-02-26T03:31:29;12.57;;;3.45;;
83145;SDS011;73037;51.110;4.706;2024-02-26T03:33:54;17.25;;;3.95;;
83145;SDS011;73037;51.110;4.706;2024-02-26T03:36:20;15.63;;;3.70;;
83145;SDS011;73037;51.110;4.706;2024-02-26T03:38:46;23.50;;;5.05;;
83145;SDS011;73037;51.110;4.706;2024-02-26T03:41:13;23.25;;;5.60;;
83145;SDS011;73037;51.110;4.706;2024-02-26T03:43:38;37.95;;;8.18;;
83145;SDS011;73037;51.110;4.706;2024-02-26T03:46:07;20.52;;;4.80;;
83145;SDS011;73037;51.110;4.706;2024-02-26T03:48:33;31.42;;;7.30;;
83145;SDS011;73037;51.110;4.706;2024-02-26T03:50:59;46.67;;;9.45;;
83145;SDS011;73037;51.110;4.706;2024-02-26T03:53:25;41.50;;;9.40;;
83145;SDS011;73037;51.110;4.706;2024-02-26T03:55:51;45.38;;;9.98;;
83145;SDS011;73037;51.110;4.706;2024-02-26T03:58:17;32.53;;;7.72;;
83145;SDS011;73037;51.110;4.706;2024-02-26T04:00:43;60.80;;;13.65;;
83145;SDS011;73037;51.110;4.706;2024-02-26T04:03:09;75.18;;;16.77;;
83145;SDS011;73037;51.110;4.706;2024-02-26T04:05:35;42.05;;;9.15;;
83145;SDS011;73037;51.110;4.706;2024-02-26T04:08:00;48.42;;;11.48;;
83145;SDS011;73037;51.110;4.706;2024-02-26T04:10:26;59.83;;;14.32;;
83145;SDS011;73037;51.110;4.706;2024-02-26T04:12:52;77.63;;;16.02;;
83145;SDS011;73037;51.110;4.706;2024-02-26T04:15:17;61.72;;;13.45;;
83145;SDS011;73037;51.110;4.706;2024-02-26T04:17:43;74.82;;;16.00;;
83145;SDS011;73037;51.110;4.706;2024-02-26T04:20:13;60.83;;;13.82;;
83145;SDS011;73037;51.110;4.706;2024-02-26T04:22:43;54.08;;;11.68;;
83145;SDS011;73037;51.110;4.706;2024-02-26T04:25:09;61.95;;;12.93;;
83145;SDS011;73037;51.110;4.706;2024-02-26T04:27:35;74.88;;;16.38;;
83145;SDS011;73037;51.110;4.706;2024-02-26T04:30:00;88.88;;;18.10;;
83145;SDS011;73037;51.110;4.706;2024-02-26T04:32:26;26.90;;;7.18;;
83145;SDS011;73037;51.110;4.706;2024-02-26T04:34:52;54.58;;;11.50;;
83145;SDS011;73037;51.110;4.706;2024-02-26T04:37:19;78.35;;;15.98;;
83145;SDS011;73037;51.110;4.706;2024-02-26T04:39:44;43.33;;;10.40;;
83145;SDS011;73037;51.110;4.706;2024-02-26T04:42:10;72.65;;;14.10;;
83145;SDS011;73037;51.110;4.706;2024-02-26T04:44:36;79.22;;;17.25;;
83145;SDS011;73037;51.110;4.706;2024-02-26T04:47:01;75.40;;;15.90;;
83145;SDS011;73037;51.110;4.706;2024-02-26T04:49:27;34.78;;;8.32;;
83145;SDS011;73037;51.110;4.706;2024-02-26T04:51:53;87.22;;;17.88;;
83145;SDS011;73037;51.110;4.706;2024-02-26T04:54:19;32.45;;;8.13;;
83145;SDS011;73037;51.110;4.706;2024-02-26T04:56:45;73.55;;;15.73;;
83145;SDS011;73037;51.110;4.706;2024-02-26T04:59:11;63.22;;;13.70;;
83145;SDS011;73037;51.110;4.706;2024-02-26T05:01:37;29.25;;;7.78;;
83145;SDS011;73037;51.110;4.706;2024-02-26T05:04:03;52.70;;;12.55;;
83145;SDS011;73037;51.110;4.706;2024-02-26T05:06:28;69.90;;;14.80;;
83145;SDS011;73037;51.110;4.706;2024-02-26T05:08:54;41.20;;;9.07;;
83145;SDS011;73037;51.110;4.706;2024-02-26T05:11:20;51.75;;;11.45;;
83145;SDS011;73037;51.110;4.706;2024-02-26T05:13:45;50.78;;;10.32;;
83145;SDS011;73037;51.110;4.706;2024-02-26T05:18:38;34.28;;;8.00;;
83145;SDS011;73037;51.110;4.706;2024-02-26T05:21:04;43.03;;;10.20;;
83145;SDS011;73037;51.110;4.706;2024-02-26T05:23:29;36.00;;;8.57;;
83145;SDS011;73037;51.110;4.706;2024-02-26T05:25:55;25.25;;;6.07;;
83145;SDS011;73037;51.110;4.706;2024-02-26T05:28:21;58.40;;;13.57;;
83145;SDS011;73037;51.110;4.706;2024-02-26T05:30:46;19.08;;;5.38;;
83145;SDS011;73037;51.110;4.706;2024-02-26T05:33:12;40.92;;;8.93;;
83145;SDS011;73037;51.110;4.706;2024-02-26T05:35:37;48.90;;;10.48;;
83145;SDS011;73037;51.110;4.706;2024-02-26T05:38:03;50.33;;;11.20;;
83145;SDS011;73037;51.110;4.706;2024-02-26T05:40:29;50.20;;;10.93;;
83145;SDS011;73037;51.110;4.706;2024-02-26T05:42:55;43.20;;;9.35;;
83145;SDS011;73037;51.110;4.706;2024-02-26T05:45:21;37.20;;;8.32;;
83145;SDS011;73037;51.110;4.706;2024-02-26T05:47:47;63.47;;;15.10;;
83145;SDS011;73037;51.110;4.706;2024-02-26T05:50:12;45.58;;;9.55;;
83145;SDS011;73037;51.110;4.706;2024-02-26T05:52:39;52.92;;;11.02;;
83145;SDS011;73037;51.110;4.706;2024-02-26T05:55:05;25.35;;;6.40;;
83145;SDS011;73037;51.110;4.706;2024-02-26T05:57:33;34.97;;;7.03;;
83145;SDS011;73037;51.110;4.706;2024-02-26T05:59:59;57.80;;;12.10;;
83145;SDS011;73037;51.110;4.706;2024-02-26T06:02:29;37.97;;;8.27;;
83145;SDS011;73037;51.110;4.706;2024-02-26T06:04:55;30.05;;;6.95;;
83145;SDS011;73037;51.110;4.706;2024-02-26T06:07:20;33.67;;;7.68;;
83145;SDS011;73037;51.110;4.706;2024-02-26T06:09:46;43.80;;;9.65;;
83145;SDS011;73037;51.110;4.706;2024-02-26T06:12:13;63.88;;;13.25;;
83145;SDS011;73037;51.110;4.706;2024-02-26T06:14:39;32.08;;;8.27;;
83145;SDS011;73037;51.110;4.706;2024-02-26T06:17:05;40.90;;;9.40;;
83145;SDS011;73037;51.110;4.706;2024-02-26T06:19:32;39.28;;;8.70;;
83145;SDS011;73037;51.110;4.706;2024-02-26T06:21:57;56.20;;;12.90;;
83145;SDS011;73037;51.110;4.706;2024-02-26T06:24:23;40.53;;;8.32;;
83145;SDS011;73037;51.110;4.706;2024-02-26T06:26:49;58.95;;;11.85;;
83145;SDS011;73037;51.110;4.706;2024-02-26T06:29:14;60.40;;;13.45;;
83145;SDS011;73037;51.110;4.706;2024-02-26T06:31:40;27.92;;;7.25;;
83145;SDS011;73037;51.110;4.706;2024-02-26T06:34:06;37.13;;;8.85;;
83145;SDS011;73037;51.110;4.706;2024-02-26T06:36:31;45.30;;;9.23;;
83145;SDS011;73037;51.110;4.706;2024-02-26T06:38:58;64.28;;;13.80;;
83145;SDS011;73037;51.110;4.706;2024-02-26T06:41:23;47.20;;;10.60;;
83145;SDS011;73037;51.110;4.706;2024-02-26T06:43:55;47.83;;;11.13;;
83145;SDS011;73037;51.110;4.706;2024-02-26T06:46:21;66.00;;;13.57;;
83145;SDS011;73037;51.110;4.706;2024-02-26T06:48:51;60.20;;;13.25;;
83145;SDS011;73037;51.110;4.706;2024-02-26T06:51:16;18.75;;;5.53;;
83145;SDS011;73037;51.110;4.706;2024-02-26T06:53:43;53.05;;;10.32;;
83145;SDS011;73037;51.110;4.706;2024-02-26T06:56:08;45.40;;;10.15;;
83145;SDS011;73037;51.110;4.706;2024-02-26T06:58:34;56.47;;;11.77;;
83145;SDS011;73037;51.110;4.706;2024-02-26T07:00:59;34.35;;;7.10;;
83145;SDS011;73037;51.110;4.706;2024-02-26T07:03:25;23.75;;;6.70;;
83145;SDS011;73037;51.110;4.706;2024-02-26T07:05:51;40.17;;;8.70;;
83145;SDS011;73037;51.110;4.706;2024-02-26T07:08:17;36.28;;;8.73;;
83145;SDS011;73037;51.110;4.706;2024-02-26T07:10:42;26.35;;;6.75;;
83145;SDS011;73037;51.110;4.706;2024-02-26T07:13:08;55.30;;;10.90;;
83145;SDS011;73037;51.110;4.706;2024-02-26T07:15:34;40.65;;;9.55;;
83145;SDS011;73037;51.110;4.706;2024-02-26T07:18:00;50.47;;;10.50;;
83145;SDS011;73037;51.110;4.706;2024-02-26T07:20:29;26.33;;;6.05;;
83145;SDS011;73037;51.110;4.706;2024-02-26T07:22:55;41.70;;;9.32;;
83145;SDS011;73037;51.110;4.706;2024-02-26T07:25:21;35.40;;;7.35;;
83145;SDS011;73037;51.110;4.706;2024-02-26T07:27:47;19.48;;;5.55;;
83145;SDS011;73037;51.110;4.706;2024-02-26T07:30:13;39.00;;;7.93;;
83145;SDS011;73037;51.110;4.706;2024-02-26T07:32:39;59.10;;;11.68;;
83145;SDS011;73037;51.110;4.706;2024-02-26T07:35:05;35.97;;;7.63;;
83145;SDS011;73037;51.110;4.706;2024-02-26T07:37:31;57.50;;;10.90;;
83145;SDS011;73037;51.110;4.706;2024-02-26T07:39:56;33.90;;;6.90;;
83145;SDS011;73037;51.110;4.706;2024-02-26T07:42:22;49.03;;;9.95;;
83145;SDS011;73037;51.110;4.706;2024-02-26T07:44:48;51.70;;;10.50;;
83145;SDS011;73037;51.110;4.706;2024-02-26T07:47:13;34.78;;;7.60;;
83145;SDS011;73037;51.110;4.706;2024-02-26T07:49:39;40.83;;;8.98;;
83145;SDS011;73037;51.110;4.706;2024-02-26T07:52:05;25.92;;;6.55;;
83145;SDS011;73037;51.110;4.706;2024-02-26T07:54:31;26.60;;;5.70;;
83145;SDS011;73037;51.110;4.706;2024-02-26T07:56:57;36.25;;;8.05;;
83145;SDS011;73037;51.110;4.706;2024-02-26T07:59:22;29.58;;;7.10;;
83145;SDS011;73037;51.110;4.706;2024-02-26T08:01:49;38.33;;;8.55;;
83145;SDS011;73037;51.110;4.706;2024-02-26T08:04:16;49.40;;;9.60;;
83145;SDS011;73037;51.110;4.706;2024-02-26T08:06:42;34.53;;;7.53;;
83145;SDS011;73037;51.110;4.706;2024-02-26T08:09:08;55.28;;;11.30;;
83145;SDS011;73037;51.110;4.706;2024-02-26T08:11:34;43.55;;;9.88;;
83145;SDS011;73037;51.110;4.706;2024-02-26T08:14:00;61.83;;;13.32;;
83145;SDS011;73037;51.110;4.706;2024-02-26T08:16:25;56.25;;;10.88;;
83145;SDS011;73037;51.110;4.706;2024-02-26T08:18:52;54.90;;;11.05;;
83145;SDS011;73037;51.110;4.706;2024-02-26T08:21:17;54.45;;;10.73;;
83145;SDS011;73037;51.110;4.706;2024-02-26T08:23:43;47.45;;;10.98;;
83145;SDS011;73037;51.110;4.706;2024-02-26T08:26:09;37.28;;;8.10;;
83145;SDS011;73037;51.110;4.706;2024-02-26T08:28:36;47.17;;;10.32;;
83145;SDS011;73037;51.110;4.706;2024-02-26T08:31:03;49.38;;;10.13;;
83145;SDS011;73037;51.110;4.706;2024-02-26T08:33:29;39.58;;;9.73;;
83145;SDS011;73037;51.110;4.706;2024-02-26T08:35:55;64.80;;;14.73;;
83145;SDS011;73037;51.110;4.706;2024-02-26T08:38:21;56.55;;;11.77;;
83145;SDS011;73037;51.110;4.706;2024-02-26T08:40:48;48.45;;;10.57;;
83145;SDS011;73037;51.110;4.706;2024-02-26T08:43:14;42.70;;;9.52;;
83145;SDS011;73037;51.110;4.706;2024-02-26T08:45:39;36.78;;;8.55;;
83145;SDS011;73037;51.110;4.706;2024-02-26T08:48:05;21.55;;;6.78;;
83145;SDS011;73037;51.110;4.706;2024-02-26T08:50:31;52.55;;;12.75;;
83145;SDS011;73037;51.110;4.706;2024-02-26T08:52:57;35.50;;;8.18;;
83145;SDS011;73037;51.110;4.706;2024-02-26T08:55:22;56.88;;;13.20;;
83145;SDS011;73037;51.110;4.706;2024-02-26T08:57:48;49.60;;;10.73;;
83145;SDS011;73037;51.110;4.706;2024-02-26T09:00:14;57.70;;;12.70;;
83145;SDS011;73037;51.110;4.706;2024-02-26T09:02:45;42.65;;;8.82;;
83145;SDS011;73037;51.110;4.706;2024-02-26T09:05:11;25.60;;;6.85;;
83145;SDS011;73037;51.110;4.706;2024-02-26T09:07:37;31.55;;;8.00;;
83145;SDS011;73037;51.110;4.706;2024-02-26T09:10:03;67.95;;;13.45;;
83145;SDS011;73037;51.110;4.706;2024-02-26T09:12:30;63.85;;;13.38;;
83145;SDS011;73037;51.110;4.706;2024-02-26T09:14:55;57.28;;;13.35;;
83145;SDS011;73037;51.110;4.706;2024-02-26T09:17:22;50.17;;;12.02;;
83145;SDS011;73037;51.110;4.706;2024-02-26T09:19:48;57.65;;;13.18;;
83145;SDS011;73037;51.110;4.706;2024-02-26T09:22:14;45.05;;;10.38;;
83145;SDS011;73037;51.110;4.706;2024-02-26T09:24:39;67.60;;;15.60;;
83145;SDS011;73037;51.110;4.706;2024-02-26T09:27:05;47.95;;;11.30;;
83145;SDS011;73037;51.110;4.706;2024-02-26T09:29:31;35.45;;;8.45;;
83145;SDS011;73037;51.110;4.706;2024-02-26T09:31:58;47.60;;;11.15;;
83145;SDS011;73037;51.110;4.706;2024-02-26T09:34:23;30.10;;;7.90;;
83145;SDS011;73037;51.110;4.706;2024-02-26T09:36:49;60.33;;;13.07;;
83145;SDS011;73037;51.110;4.706;2024-02-26T09:39:15;65.53;;;13.60;;
83145;SDS011;73037;51.110;4.706;2024-02-26T09:41:46;60.22;;;12.80;;
83145;SDS011;73037;51.110;4.706;2024-02-26T09:44:13;54.20;;;12.30;;
83145;SDS011;73037;51.110;4.706;2024-02-26T09:46:45;44.72;;;11.13;;
83145;SDS011;73037;51.110;4.706;2024-02-26T09:49:12;48.15;;;11.23;;
83145;SDS011;73037;51.110;4.706;2024-02-26T09:51:40;47.50;;;10.48;;
83145;SDS011;73037;51.110;4.706;2024-02-26T09:54:06;51.25;;;10.82;;
83145;SDS011;73037;51.110;4.706;2024-02-26T09:56:34;49.90;;;10.90;;
83145;SDS011;73037;51.110;4.706;2024-02-26T09:59:05;53.53;;;12.20;;
83145;SDS011;73037;51.110;4.706;2024-02-26T10:01:35;40.42;;;9.50;;
83145;SDS011;73037;51.110;4.706;2024-02-26T10:04:02;43.38;;;9.38;;
83145;SDS011;73037;51.110;4.706;2024-02-26T10:06:29;36.55;;;8.65;;
83145;SDS011;73037;51.110;4.706;2024-02-26T10:08:55;17.98;;;5.50;;
83145;SDS011;73037;51.110;4.706;2024-02-26T10:11:23;53.80;;;12.93;;
83145;SDS011;73037;51.110;4.706;2024-02-26T10:13:49;31.58;;;7.82;;
83145;SDS011;73037;51.110;4.706;2024-02-26T10:16:16;43.70;;;9.98;;
83145;SDS011;73037;51.110;4.706;2024-02-26T10:18:48;47.45;;;10.63;;
83145;SDS011;73037;51.110;4.706;2024-02-26T10:21:19;36.25;;;8.95;;
83145;SDS011;73037;51.110;4.706;2024-02-26T10:23:46;58.10;;;12.75;;
83145;SDS011;73037;51.110;4.706;2024-02-26T10:26:12;24.75;;;7.00;;
83145;SDS011;73037;51.110;4.706;2024-02-26T10:31:06;33.00;;;8.27;;
83145;SDS011;73037;51.110;4.706;2024-02-26T10:33:33;16.10;;;4.53;;
83145;SDS011;73037;51.110;4.706;2024-02-26T10:36:01;39.47;;;9.18;;
83145;SDS011;73037;51.110;4.706;2024-02-26T10:38:27;44.72;;;11.50;;
83145;SDS011;73037;51.110;4.706;2024-02-26T10:40:54;59.53;;;13.82;;
83145;SDS011;73037;51.110;4.706;2024-02-26T10:43:20;42.05;;;10.43;;
83145;SDS011;73037;51.110;4.706;2024-02-26T10:45:45;49.35;;;11.05;;
83145;SDS011;73037;51.110;4.706;2024-02-26T10:48:13;44.75;;;9.25;;
83145;SDS011;73037;51.110;4.706;2024-02-26T10:50:39;56.00;;;12.40;;
83145;SDS011;73037;51.110;4.706;2024-02-26T10:53:28;20.77;;;5.32;;
83145;SDS011;73037;51.110;4.706;2024-02-26T10:56:04;39.30;;;8.35;;
83145;SDS011;73037;51.110;4.706;2024-02-26T10:58:31;47.03;;;10.27;;
83145;SDS011;73037;51.110;4.706;2024-02-26T11:00:57;49.75;;;10.70;;
83145;SDS011;73037;51.110;4.706;2024-02-26T11:03:24;45.92;;;10.15;;
83145;SDS011;73037;51.110;4.706;2024-02-26T11:05:50;12.55;;;4.22;;
83145;SDS011;73037;51.110;4.706;2024-02-26T11:08:17;54.70;;;11.73;;
83145;SDS011;73037;51.110;4.706;2024-02-26T11:10:45;57.22;;;12.50;;
83145;SDS011;73037;51.110;4.706;2024-02-26T11:13:14;50.03;;;10.57;;
83145;SDS011;73037;51.110;4.706;2024-02-26T11:15:42;17.30;;;5.32;;
83145;SDS011;73037;51.110;4.706;2024-02-26T11:18:09;29.35;;;6.78;;
83145;SDS011;73037;51.110;4.706;2024-02-26T11:20:38;47.60;;;10.32;;
83145;SDS011;73037;51.110;4.706;2024-02-26T11:23:05;47.50;;;11.27;;
83145;SDS011;73037;51.110;4.706;2024-02-26T11:25:33;61.00;;;13.13;;
83145;SDS011;73037;51.110;4.706;2024-02-26T11:28:00;63.28;;;14.40;;
83145;SDS011;73037;51.110;4.706;2024-02-26T11:30:29;45.25;;;10.88;;
83145;SDS011;73037;51.110;4.706;2024-02-26T11:32:57;57.38;;;12.95;;
83145;SDS011;73037;51.110;4.706;2024-02-26T11:35:23;50.47;;;12.63;;
83145;SDS011;73037;51.110;4.706;2024-02-26T11:37:55;49.10;;;11.20;;
83145;SDS011;73037;51.110;4.706;2024-02-26T11:40:26;60.30;;;12.70;;
83145;SDS011;73037;51.110;4.706;2024-02-26T11:42:52;50.03;;;10.60;;
83145;SDS011;73037;51.110;4.706;2024-02-26T11:50:40;33.33;;;7.45;;
83145;SDS011;73037;51.110;4.706;2024-02-26T11:53:19;49.97;;;10.57;;
83145;SDS011;73037;51.110;4.706;2024-02-26T11:55:44;41.60;;;10.38;;
83145;SDS011;73037;51.110;4.706;2024-02-26T11:58:10;29.08;;;7.60;;
83145;SDS011;73037;51.110;4.706;2024-02-26T12:00:35;50.25;;;11.07;;
83145;SDS011;73037;51.110;4.706;2024-02-26T12:03:01;39.50;;;9.63;;
83145;SDS011;73037;51.110;4.706;2024-02-26T12:05:32;59.13;;;13.75;;
83145;SDS011;73037;51.110;4.706;2024-02-26T12:10:32;49.92;;;12.02;;
83145;SDS011;73037;51.110;4.706;2024-02-26T12:13:02;31.23;;;6.68;;
83145;SDS011;73037;51.110;4.706;2024-02-26T12:15:42;61.15;;;13.68;;
83145;SDS011;73037;51.110;4.706;2024-02-26T12:18:09;50.75;;;12.07;;
83145;SDS011;73037;51.110;4.706;2024-02-26T12:20:40;54.17;;;12.73;;
83145;SDS011;73037;51.110;4.706;2024-02-26T12:23:06;41.45;;;9.75;;
83145;SDS011;73037;51.110;4.706;2024-02-26T12:25:31;63.10;;;13.75;;
83145;SDS011;73037;51.110;4.706;2024-02-26T12:27:58;40.05;;;8.98;;
83145;SDS011;73037;51.110;4.706;2024-02-26T12:30:24;64.72;;;13.60;;
83145;SDS011;73037;51.110;4.706;2024-02-26T12:32:51;49.47;;;11.40;;
83145;SDS011;73037;51.110;4.706;2024-02-26T12:35:22;19.67;;;6.38;;
83145;SDS011;73037;51.110;4.706;2024-02-26T12:37:48;58.05;;;13.32;;
83145;SDS011;73037;51.110;4.706;2024-02-26T12:40:16;62.25;;;14.25;;
83145;SDS011;73037;51.110;4.706;2024-02-26T12:42:43;59.80;;;13.88;;
83145;SDS011;73037;51.110;4.706;2024-02-26T12:45:10;62.88;;;12.45;;
83145;SDS011;73037;51.110;4.706;2024-02-26T12:47:40;64.85;;;14.15;;
83145;SDS011;73037;51.110;4.706;2024-02-26T12:50:07;59.38;;;13.02;;
83145;SDS011;73037;51.110;4.706;2024-02-26T12:52:34;62.47;;;13.75;;
83145;SDS011;73037;51.110;4.706;2024-02-26T12:57:28;35.05;;;7.65;;
83145;SDS011;73037;51.110;4.706;2024-02-26T12:59:58;61.75;;;13.85;;
83145;SDS011;73037;51.110;4.706;2024-02-26T13:02:25;57.33;;;12.45;;
83145;SDS011;73037;51.110;4.706;2024-02-26T13:04:51;64.18;;;12.48;;
83145;SDS011;73037;51.110;4.706;2024-02-26T13:07:18;45.78;;;10.02;;
83145;SDS011;73037;51.110;4.706;2024-02-26T13:09:45;52.63;;;11.70;;
83145;SDS011;73037;51.110;4.706;2024-02-26T13:12:11;52.15;;;11.35;;
83145;SDS011;73037;51.110;4.706;2024-02-26T13:14:37;48.05;;;11.02;;
83145;SDS011;73037;51.110;4.706;2024-02-26T13:17:04;77.13;;;16.95;;
83145;SDS011;73037;51.110;4.706;2024-02-26T13:19:29;72.10;;;16.48;;
83145;SDS011;73037;51.110;4.706;2024-02-26T13:21:55;62.65;;;13.80;;
83145;SDS011;73037;51.110;4.706;2024-02-26T13:24:21;40.78;;;8.40;;
83145;SDS011;73037;51.110;4.706;2024-02-26T13:26:53;68.35;;;14.85;;
83145;SDS011;73037;51.110;4.706;2024-02-26T13:29:20;59.13;;;12.48;;
83145;SDS011;73037;51.110;4.706;2024-02-26T13:31:45;58.75;;;12.68;;
83145;SDS011;73037;51.110;4.706;2024-02-26T13:34:27;58.17;;;11.63;;
83145;SDS011;73037;51.110;4.706;2024-02-26T13:36:56;80.20;;;15.40;;
83145;SDS011;73037;51.110;4.706;2024-02-26T13:39:25;29.05;;;7.05;;
83145;SDS011;73037;51.110;4.706;2024-02-26T13:41:53;62.47;;;13.23;;
83145;SDS011;73037;51.110;4.706;2024-02-26T13:44:19;57.60;;;10.82;;
83145;SDS011;73037;51.110;4.706;2024-02-26T13:46:46;54.40;;;11.07;;
83145;SDS011;73037;51.110;4.706;2024-02-26T13:49:12;30.20;;;7.05;;
83145;SDS011;73037;51.110;4.706;2024-02-26T13:51:40;41.83;;;8.35;;
83145;SDS011;73037;51.110;4.706;2024-02-26T13:54:06;52.60;;;9.80;;
83145;SDS011;73037;51.110;4.706;2024-02-26T13:56:32;63.13;;;12.57;;
83145;SDS011;73037;51.110;4.706;2024-02-26T13:58:58;43.95;;;8.90;;
83145;SDS011;73037;51.110;4.706;2024-02-26T14:01:25;55.08;;;10.73;;
83145;SDS011;73037;51.110;4.706;2024-02-26T14:03:51;54.97;;;10.00;;
83145;SDS011;73037;51.110;4.706;2024-02-26T14:06:20;67.15;;;11.85;;
83145;SDS011;73037;51.110;4.706;2024-02-26T14:08:46;69.45;;;12.45;;
83145;SDS011;73037;51.110;4.706;2024-02-26T14:11:11;62.38;;;12.43;;
83145;SDS011;73037;51.110;4.706;2024-02-26T14:13:37;64.63;;;12.73;;
83145;SDS011;73037;51.110;4.706;2024-02-26T14:16:03;57.13;;;11.18;;
83145;SDS011;73037;51.110;4.706;2024-02-26T14:18:29;68.40;;;12.95;;
83145;SDS011;73037;51.110;4.706;2024-02-26T14:20:54;62.55;;;12.27;;
83145;SDS011;73037;51.110;4.706;2024-02-26T14:23:20;30.48;;;7.28;;
83145;SDS011;73037;51.110;4.706;2024-02-26T14:25:45;59.33;;;11.98;;
83145;SDS011;73037;51.110;4.706;2024-02-26T14:28:11;59.65;;;11.82;;
83145;SDS011;73037;51.110;4.706;2024-02-26T14:30:36;42.92;;;9.13;;
83145;SDS011;73037;51.110;4.706;2024-02-26T14:33:02;58.72;;;12.05;;
83145;SDS011;73037;51.110;4.706;2024-02-26T14:35:28;38.45;;;8.02;;
83145;SDS011;73037;51.110;4.706;2024-02-26T14:37:53;48.55;;;8.80;;
83145;SDS011;73037;51.110;4.706;2024-02-26T14:40:20;54.20;;;10.48;;
83145;SDS011;73037;51.110;4.706;2024-02-26T14:42:46;43.25;;;8.82;;